Time;durP1;ratioP1;P1;durP2;ratioP2;P2;SDS_P1;SDS_P2;PMS_P1;PMS_P2;Temp;Humidity;BMP_temperature;BMP_pressure;BME280_temperature;BME280_humidity;BME280_pressure;Samples;Min_cycle;Max_cycle;Signal;HPM_P1;HPM_P2
2023/05/14 00:01:28;;;;;;;6.77;4.90;;;14.00;99.90;;;;;;4804983;29;20332;-60
2023/05/14 00:03:57;;;;;;;5.00;4.60;;;14.00;99.90;;;;;;4819047;29;20709;-59
2023/05/14 00:06:26;;;;;;;5.77;5.27;;;13.90;99.90;;;;;;4830911;29;20248;-60
2023/05/14 00:08:54;;;;;;;6.30;5.07;;;13.90;99.90;;;;;;4821523;29;20320;-60
2023/05/14 00:11:22;;;;;;;6.67;5.07;;;13.80;99.90;;;;;;4808825;29;20271;-60
2023/05/14 00:13:50;;;;;;;6.60;4.97;;;13.80;99.90;;;;;;4808688;29;20618;-60
2023/05/14 00:16:18;;;;;;;6.80;5.47;;;13.80;99.90;;;;;;4822134;29;20236;-60
2023/05/14 00:18:48;;;;;;;6.33;4.80;;;13.80;99.90;;;;;;4826975;29;20246;-60
2023/05/14 00:21:18;;;;;;;7.63;5.17;;;13.70;99.90;;;;;;4834532;29;20332;-60
2023/05/14 00:23:46;;;;;;;5.73;5.07;;;13.70;99.90;;;;;;4842971;29;20577;-60
2023/05/14 00:26:15;;;;;;;5.77;4.90;;;13.70;99.90;;;;;;4821773;29;20664;-60
2023/05/14 00:28:45;;;;;;;6.07;5.43;;;13.70;99.90;;;;;;4807296;29;20233;-60
2023/05/14 00:31:14;;;;;;;6.63;5.23;;;13.60;99.90;;;;;;4818528;29;20612;-60
2023/05/14 00:33:42;;;;;;;5.83;5.10;;;13.60;99.90;;;;;;4830657;29;20232;-60
2023/05/14 00:36:10;;;;;;;5.67;5.03;;;13.60;99.90;;;;;;4827211;29;20579;-60
2023/05/14 00:38:40;;;;;;;8.40;5.33;;;13.60;99.90;;;;;;4826609;29;20327;-60
2023/05/14 00:41:08;;;;;;;6.03;5.27;;;13.50;99.90;;;;;;4826558;29;20220;-60
2023/05/14 00:43:36;;;;;;;6.37;5.47;;;13.50;99.90;;;;;;4826268;29;20228;-60
2023/05/14 00:46:05;;;;;;;6.10;5.50;;;13.50;99.90;;;;;;4824986;29;20270;-60
2023/05/14 00:48:34;;;;;;;6.17;5.27;;;13.50;99.90;;;;;;4825095;29;20236;-60
2023/05/14 00:51:02;;;;;;;5.63;5.10;;;13.50;99.90;;;;;;4834063;29;20585;-60
2023/05/14 00:53:30;;;;;;;8.30;5.40;;;13.50;99.90;;;;;;4841508;29;20242;-59
2023/05/14 00:56:00;;;;;;;6.83;5.40;;;13.50;99.90;;;;;;4823738;29;20719;-60
2023/05/14 00:58:28;;;;;;;8.17;5.47;;;13.40;99.90;;;;;;4808002;29;20704;-59
2023/05/14 01:00:57;;;;;;;5.70;5.20;;;13.40;99.90;;;;;;4809154;29;20240;-57
2023/05/14 01:03:25;;;;;;;6.30;5.63;;;13.30;99.90;;;;;;4814522;29;20290;-57
2023/05/14 01:06:01;;;;;;;8.97;6.10;;;13.30;99.90;;;;;;4824408;29;20255;-56
2023/05/14 01:08:35;;;;;;;7.17;5.93;;;13.20;99.90;;;;;;4825716;29;20235;-56
2023/05/14 01:11:09;;;;;;;6.93;5.43;;;13.20;99.90;;;;;;4825918;29;20224;-57
2023/05/14 01:13:45;;;;;;;6.43;5.83;;;13.20;99.90;;;;;;4825855;29;20227;-56
2023/05/14 01:16:18;;;;;;;6.30;5.70;;;13.10;99.90;;;;;;4824599;29;20314;-57
2023/05/14 01:18:48;;;;;;;6.97;5.80;;;13.10;99.90;;;;;;4825672;29;21015;-56
2023/05/14 01:21:34;;;;;;;6.23;5.73;;;13.10;99.90;;;;;;4833445;29;20280;-57
2023/05/14 01:24:03;;;;;;;7.00;5.63;;;13.00;99.90;;;;;;4844104;29;20231;-57
2023/05/14 01:26:31;;;;;;;6.20;5.60;;;13.00;99.90;;;;;;4814989;29;20579;-57
2023/05/14 01:29:06;;;;;;;6.30;5.70;;;13.00;99.90;;;;;;4807768;29;20228;-56
2023/05/14 01:31:38;;;;;;;7.23;6.20;;;13.00;99.90;;;;;;4818030;29;20504;-56
2023/05/14 01:34:09;;;;;;;6.53;5.83;;;12.90;99.90;;;;;;4830540;29;20699;-56
2023/05/14 01:36:39;;;;;;;7.87;5.87;;;12.80;99.90;;;;;;4822209;29;20784;-56
2023/05/14 01:39:08;;;;;;;6.10;5.50;;;12.70;99.90;;;;;;4825893;29;20227;-57
2023/05/14 01:41:38;;;;;;;7.40;6.50;;;12.70;99.90;;;;;;4825579;29;20645;-56
2023/05/14 01:44:06;;;;;;;6.57;5.50;;;12.70;99.90;;;;;;4825705;29;20273;-56
2023/05/14 01:46:34;;;;;;;6.83;6.20;;;12.60;99.90;;;;;;4810667;29;20613;-56
2023/05/14 01:49:03;;;;;;;6.73;6.00;;;12.60;99.90;;;;;;4807565;29;20239;-57
2023/05/14 01:51:31;;;;;;;7.27;6.57;;;12.60;99.90;;;;;;4830467;29;20227;-57
2023/05/14 01:54:01;;;;;;;6.53;5.93;;;12.60;99.90;;;;;;4857345;29;20241;-56
2023/05/14 01:56:29;;;;;;;6.73;6.07;;;12.60;99.90;;;;;;4843830;29;20240;-57
2023/05/14 01:58:57;;;;;;;7.17;6.47;;;12.60;99.90;;;;;;4825335;29;20227;-56
2023/05/14 02:01:25;;;;;;;6.90;6.30;;;12.50;99.90;;;;;;4813708;29;20251;-56
2023/05/14 02:03:54;;;;;;;7.53;6.50;;;12.40;99.90;;;;;;4819230;29;20253;-57
2023/05/14 02:06:22;;;;;;;7.20;6.43;;;12.30;99.90;;;;;;4845207;29;20238;-56
2023/05/14 02:08:50;;;;;;;7.77;6.90;;;12.40;99.90;;;;;;4825357;29;20235;-57
2023/05/14 02:11:20;;;;;;;7.83;6.40;;;12.30;99.90;;;;;;4824201;29;20246;-56
2023/05/14 02:13:48;;;;;;;7.00;6.27;;;12.30;99.90;;;;;;4824870;29;20233;-57
2023/05/14 02:16:18;;;;;;;8.97;6.60;;;12.30;99.90;;;;;;4824034;29;20239;-56
2023/05/14 02:18:46;;;;;;;6.90;6.30;;;12.30;99.90;;;;;;4824970;29;20238;-56
2023/05/14 02:21:14;;;;;;;8.60;6.97;;;12.30;99.90;;;;;;4832361;29;20231;-56
2023/05/14 02:23:43;;;;;;;7.90;6.23;;;12.20;99.90;;;;;;4854578;29;20230;-56
2023/05/14 02:26:11;;;;;;;7.43;6.00;;;12.20;99.90;;;;;;4823087;29;20642;-57
2023/05/14 02:28:41;;;;;;;7.67;6.57;;;12.20;99.90;;;;;;4806930;29;20250;-57
2023/05/14 02:31:09;;;;;;;6.97;6.33;;;12.20;99.90;;;;;;4814936;29;20295;-57
2023/05/14 02:33:37;;;;;;;7.27;6.57;;;12.20;99.90;;;;;;4825838;29;20602;-56
2023/05/14 02:36:06;;;;;;;7.10;6.40;;;12.10;99.90;;;;;;4840153;29;20707;-56
2023/05/14 02:38:34;;;;;;;7.00;6.30;;;12.20;99.90;;;;;;4824889;29;20247;-56
2023/05/14 02:41:02;;;;;;;6.60;6.00;;;12.20;99.90;;;;;;4823723;29;20242;-57
2023/05/14 02:43:33;;;;;;;6.60;5.97;;;12.20;99.90;;;;;;4824543;29;20233;-56
2023/05/14 02:46:02;;;;;;;6.47;5.87;;;12.20;99.90;;;;;;4818514;29;20727;-57
2023/05/14 02:48:30;;;;;;;9.20;5.60;;;12.10;99.90;;;;;;4806199;29;20232;-56
2023/05/14 02:50:58;;;;;;;5.80;5.23;;;12.30;99.90;;;;;;4825395;29;20763;-56
2023/05/14 02:53:26;;;;;;;7.00;5.67;;;12.30;99.90;;;;;;4836797;29;20261;-56
2023/05/14 02:55:55;;;;;;;5.77;5.23;;;12.30;99.90;;;;;;4827859;29;20231;-57
2023/05/14 02:58:23;;;;;;;5.77;5.27;;;12.20;99.90;;;;;;4806232;29;20289;-56
2023/05/14 03:00:56;;;;;;;5.93;5.27;;;12.30;99.90;;;;;;4806880;29;20319;-57
2023/05/14 03:03:26;;;;;;;7.00;5.90;;;12.40;99.90;;;;;;4812661;29;20258;-56
2023/05/14 03:05:54;;;;;;;6.73;5.43;;;12.40;99.90;;;;;;4827924;29;20288;-56
2023/05/14 03:08:23;;;;;;;6.03;5.03;;;12.40;99.90;;;;;;4824416;29;20241;-56
2023/05/14 03:10:51;;;;;;;5.20;4.70;;;12.40;99.90;;;;;;4823191;29;20247;-56
2023/05/14 03:13:19;;;;;;;6.10;5.50;;;12.50;99.90;;;;;;4824361;29;20235;-56
2023/05/14 03:15:48;;;;;;;5.63;5.13;;;12.50;99.90;;;;;;4822719;29;20702;-56
2023/05/14 03:18:16;;;;;;;5.73;5.23;;;12.50;99.90;;;;;;4824190;29;20584;-56
2023/05/14 03:20:47;;;;;;;6.10;5.50;;;12.60;99.90;;;;;;4830250;29;20234;-56
2023/05/14 03:23:15;;;;;;;6.17;5.57;;;12.40;99.90;;;;;;4835017;29;20329;-56
2023/05/14 03:25:44;;;;;;;7.50;5.50;;;12.40;99.90;;;;;;4831496;29;20306;-56
2023/05/14 03:28:12;;;;;;;6.63;5.60;;;12.30;99.90;;;;;;4815260;29;20692;-56
2023/05/14 03:30:40;;;;;;;5.10;4.70;;;12.20;99.90;;;;;;4822233;29;20247;-56
2023/05/14 03:33:10;;;;;;;5.70;5.20;;;12.20;99.90;;;;;;4825340;29;20269;-56
2023/05/14 03:35:39;;;;;;;6.13;5.47;;;12.20;99.90;;;;;;4829977;29;20231;-57
2023/05/14 03:38:09;;;;;;;5.67;5.13;;;12.20;99.90;;;;;;4821898;29;20244;-57
2023/05/14 03:40:37;;;;;;;5.70;5.00;;;12.20;99.90;;;;;;4823810;29;20231;-57
2023/05/14 03:43:05;;;;;;;6.53;5.87;;;12.20;99.90;;;;;;4807957;29;20239;-57
2023/05/14 03:45:33;;;;;;;6.43;5.80;;;12.20;99.90;;;;;;4826928;29;20780;-57
2023/05/14 03:48:02;;;;;;;6.10;5.50;;;12.30;99.90;;;;;;4826309;29;20242;-56
2023/05/14 03:50:32;;;;;;;6.63;5.73;;;12.40;99.90;;;;;;4832906;29;20675;-56
2023/05/14 03:53:00;;;;;;;6.40;5.80;;;12.30;99.90;;;;;;4852089;29;20239;-57
2023/05/14 03:55:31;;;;;;;6.23;5.63;;;12.40;99.90;;;;;;4841403;29;20723;-57
2023/05/14 03:57:59;;;;;;;6.07;5.57;;;12.30;99.90;;;;;;4826078;29;20241;-57
2023/05/14 04:00:28;;;;;;;6.80;5.60;;;12.30;99.90;;;;;;4826116;29;20292;-56
2023/05/14 04:02:56;;;;;;;5.97;5.40;;;12.30;99.90;;;;;;4826355;29;20771;-57
2023/05/14 04:05:24;;;;;;;8.73;5.00;;;12.40;99.90;;;;;;4836569;29;20242;-57
2023/05/14 04:07:52;;;;;;;6.70;5.43;;;12.50;99.90;;;;;;4845600;29;20234;-56
2023/05/14 04:10:22;;;;;;;5.97;5.37;;;12.50;99.90;;;;;;4844189;29;20261;-56
2023/05/14 04:12:52;;;;;;;5.60;5.00;;;12.50;99.90;;;;;;4828075;29;20318;-56
2023/05/14 04:15:20;;;;;;;5.87;5.37;;;12.60;99.90;;;;;;4807674;29;20245;-56
2023/05/14 04:17:48;;;;;;;6.87;6.27;;;12.70;99.90;;;;;;4821485;29;20237;-56
2023/05/14 04:20:17;;;;;;;5.60;5.10;;;12.70;99.90;;;;;;4831829;29;20235;-56
2023/05/14 04:22:45;;;;;;;5.43;4.93;;;12.80;99.90;;;;;;4822071;29;20319;-57
2023/05/14 04:25:13;;;;;;;6.10;5.50;;;12.90;99.90;;;;;;4808894;29;20236;-56
2023/05/14 04:27:42;;;;;;;5.97;5.33;;;12.90;99.90;;;;;;4826768;29;20243;-56
2023/05/14 04:30:12;;;;;;;6.37;5.53;;;13.00;99.90;;;;;;4826759;29;20228;-57
2023/05/14 04:32:40;;;;;;;5.45;5.00;;;13.00;99.90;;;;;;4818056;29;20239;-57
2023/05/14 04:35:09;;;;;;;6.00;5.30;;;13.10;99.90;;;;;;4821220;29;20242;-56
2023/05/14 04:37:37;;;;;;;4.93;4.53;;;13.20;99.90;;;;;;4826655;29;20239;-57
2023/05/14 04:40:10;;;;;;;5.10;4.70;;;13.40;99.90;;;;;;4826395;29;20239;-57
2023/05/14 04:42:38;;;;;;;6.57;5.10;;;13.50;99.90;;;;;;4826634;29;20688;-57
2023/05/14 04:45:07;;;;;;;5.07;4.53;;;13.70;99.90;;;;;;4825022;29;20262;-57
2023/05/14 04:47:37;;;;;;;5.83;4.33;;;13.90;99.90;;;;;;4824998;29;20363;-57
2023/05/14 04:50:08;;;;;;;6.93;4.67;;;14.10;99.90;;;;;;4818131;29;20244;-57
2023/05/14 04:52:36;;;;;;;5.40;4.53;;;14.20;99.90;;;;;;4836587;29;20270;-57
2023/05/14 04:55:04;;;;;;;6.03;4.90;;;14.20;99.90;;;;;;4841448;29;20660;-56
2023/05/14 04:57:33;;;;;;;5.50;4.93;;;14.30;99.90;;;;;;4811454;29;20232;-57
2023/05/14 05:00:01;;;;;;;5.93;4.77;;;14.40;99.90;;;;;;4808149;29;20650;-57
2023/05/14 05:02:29;;;;;;;5.27;4.77;;;14.60;99.90;;;;;;4811878;29;20324;-57
2023/05/14 05:04:59;;;;;;;5.07;4.67;;;14.70;99.90;;;;;;4833668;29;20250;-57
2023/05/14 05:07:27;;;;;;;5.67;4.53;;;14.90;99.90;;;;;;4807889;29;20601;-57
2023/05/14 05:09:55;;;;;;;5.20;4.70;;;15.00;99.90;;;;;;4808128;29;20228;-57
2023/05/14 05:12:24;;;;;;;5.00;4.37;;;15.10;99.90;;;;;;4808117;29;20693;-57
2023/05/14 05:14:52;;;;;;;4.60;4.20;;;15.30;99.90;;;;;;4819824;29;20250;-57
2023/05/14 05:17:20;;;;;;;4.17;3.80;;;15.50;99.90;;;;;;4825866;29;20307;-57
2023/05/14 05:19:48;;;;;;;5.30;4.50;;;15.80;99.90;;;;;;4827231;29;20711;-56
2023/05/14 05:22:18;;;;;;;5.03;3.90;;;15.80;99.90;;;;;;4836968;29;20240;-57
2023/05/14 05:24:47;;;;;;;7.37;4.00;;;16.20;99.90;;;;;;4827249;29;20224;-57
2023/05/14 05:27:17;;;;;;;4.90;3.90;;;16.40;99.90;;;;;;4825199;29;20246;-57
2023/05/14 05:29:45;;;;;;;6.43;4.27;;;16.40;99.90;;;;;;4823060;29;21273;-57
2023/05/14 05:32:13;;;;;;;3.87;3.33;;;16.70;99.90;;;;;;4822615;29;20236;-57
2023/05/14 05:34:41;;;;;;;5.10;3.90;;;16.80;99.90;;;;;;4833723;29;20696;-57
2023/05/14 05:37:11;;;;;;;4.07;3.67;;;17.00;99.90;;;;;;4810699;29;20237;-57
2023/05/14 05:39:41;;;;;;;6.73;3.63;;;17.20;99.90;;;;;;4807568;29;20247;-57
2023/05/14 05:42:09;;;;;;;3.90;3.60;;;17.30;99.90;;;;;;4810006;29;20242;-56
2023/05/14 05:44:37;;;;;;;5.57;4.00;;;17.30;99.90;;;;;;4816978;29;20232;-57
2023/05/14 05:47:06;;;;;;;4.10;3.70;;;17.40;99.90;;;;;;4818949;29;20232;-57
2023/05/14 05:49:35;;;;;;;5.27;3.80;;;17.40;99.90;;;;;;4825235;29;20724;-57
2023/05/14 05:52:04;;;;;;;3.70;3.40;;;17.50;99.90;;;;;;4825756;29;20254;-57
2023/05/14 05:54:32;;;;;;;5.27;3.60;;;17.60;99.90;;;;;;4825292;29;20233;-57
2023/05/14 05:57:02;;;;;;;4.40;3.70;;;17.70;99.90;;;;;;4814719;29;20316;-57
2023/05/14 05:59:30;;;;;;;3.93;3.63;;;17.80;99.90;;;;;;4814059;29;20327;-57
2023/05/14 06:01:58;;;;;;;4.83;3.47;;;17.80;99.90;;;;;;4823078;29;20365;-57
2023/05/14 06:04:26;;;;;;;4.80;3.50;;;17.90;99.90;;;;;;4818275;29;20579;-58
2023/05/14 06:06:54;;;;;;;4.20;3.60;;;17.90;99.90;;;;;;4816993;29;20248;-57
2023/05/14 06:09:22;;;;;;;4.43;3.60;;;18.00;99.90;;;;;;4813851;29;20341;-57
2023/05/14 06:11:51;;;;;;;3.53;3.23;;;18.00;99.90;;;;;;4815192;29;20237;-57
2023/05/14 06:14:20;;;;;;;3.83;3.53;;;18.20;99.90;;;;;;4814074;29;20335;-57
2023/05/14 06:16:48;;;;;;;3.87;3.53;;;18.40;99.90;;;;;;4814196;29;20244;-58
2023/05/14 06:19:17;;;;;;;3.57;3.27;;;18.60;99.90;;;;;;4814294;29;21433;-57
2023/05/14 06:21:45;;;;;;;3.37;3.00;;;18.80;99.90;;;;;;4815577;29;20265;-58
2023/05/14 06:24:13;;;;;;;4.57;3.23;;;18.70;99.90;;;;;;4816524;29;20230;-57
2023/05/14 06:26:42;;;;;;;3.30;3.00;;;18.70;99.90;;;;;;4816451;29;20246;-58
2023/05/14 06:29:10;;;;;;;3.17;2.87;;;18.90;99.90;;;;;;4817925;29;20246;-58
2023/05/14 06:31:39;;;;;;;3.47;3.17;;;19.20;99.90;;;;;;4817027;29;20246;-57
2023/05/14 06:34:08;;;;;;;5.10;3.30;;;19.20;99.90;;;;;;4816341;29;20638;-58
2023/05/14 06:36:36;;;;;;;3.27;2.97;;;19.40;99.90;;;;;;4812688;29;20280;-57
2023/05/14 06:39:04;;;;;;;3.23;2.93;;;19.50;99.90;;;;;;4813919;29;20257;-58
2023/05/14 06:41:34;;;;;;;3.23;2.97;;;19.40;99.90;;;;;;4814326;29;20741;-58
2023/05/14 06:44:02;;;;;;;3.33;3.03;;;19.40;99.90;;;;;;4814666;29;20238;-57
2023/05/14 06:46:31;;;;;;;3.20;3.00;;;19.30;99.90;;;;;;4812982;29;20700;-57
2023/05/14 06:49:00;;;;;;;5.10;3.03;;;19.20;99.90;;;;;;4817033;29;20795;-57
2023/05/14 06:51:28;;;;;;;3.20;3.00;;;19.30;99.90;;;;;;4816763;29;20731;-58
2023/05/14 06:53:57;;;;;;;3.77;2.90;;;19.40;99.90;;;;;;4814195;29;20242;-58
2023/05/14 06:56:25;;;;;;;4.43;3.03;;;19.50;99.90;;;;;;4811805;29;20242;-58
2023/05/14 06:58:53;;;;;;;2.67;2.47;;;19.80;99.90;;;;;;4815024;29;20263;-58
2023/05/14 07:01:21;;;;;;;3.10;2.80;;;19.90;99.90;;;;;;4814784;29;20243;-57
2023/05/14 07:03:50;;;;;;;3.47;2.90;;;20.10;99.90;;;;;;4813885;29;20757;-58
2023/05/14 07:06:19;;;;;;;3.73;3.33;;;20.10;99.90;;;;;;4810662;29;21421;-58
2023/05/14 07:08:47;;;;;;;3.30;2.90;;;20.10;99.90;;;;;;4814759;29;20306;-58
2023/05/14 07:11:16;;;;;;;3.03;2.73;;;20.10;99.90;;;;;;4815175;29;21520;-57
2023/05/14 07:13:44;;;;;;;3.30;3.00;;;20.30;99.90;;;;;;4814320;29;20243;-57
2023/05/14 07:16:12;;;;;;;4.13;3.10;;;20.60;99.90;;;;;;4812497;29;20236;-57
2023/05/14 07:18:40;;;;;;;3.13;2.83;;;20.90;99.90;;;;;;4813364;29;20243;-58
2023/05/14 07:21:08;;;;;;;3.00;2.80;;;21.30;99.90;;;;;;4814614;29;20247;-58
2023/05/14 07:23:38;;;;;;;3.17;2.87;;;21.20;99.90;;;;;;4814089;29;20295;-58
2023/05/14 07:26:07;;;;;;;3.33;2.70;;;21.40;99.90;;;;;;4813622;29;20239;-58
2023/05/14 07:28:36;;;;;;;3.93;3.20;;;21.50;99.90;;;;;;4814586;29;20244;-57
2023/05/14 07:31:07;;;;;;;2.90;2.70;;;21.50;99.90;;;;;;4812690;29;20244;-57
2023/05/14 07:33:36;;;;;;;2.87;2.57;;;21.90;99.90;;;;;;4813851;29;20248;-57
2023/05/14 07:36:05;;;;;;;2.90;2.60;;;22.50;99.90;;;;;;4810467;29;20321;-57
2023/05/14 07:38:34;;;;;;;4.70;2.60;;;22.90;99.90;;;;;;4812631;29;20326;-58
2023/05/14 07:41:04;;;;;;;3.00;2.70;;;22.90;99.90;;;;;;4813969;29;20267;-58
2023/05/14 07:43:32;;;;;;;3.80;2.70;;;22.50;99.90;;;;;;4812779;29;20236;-58
2023/05/14 07:46:00;;;;;;;3.30;3.00;;;22.30;99.90;;;;;;4811317;29;20689;-58
2023/05/14 07:48:28;;;;;;;2.70;2.50;;;21.70;99.90;;;;;;4810940;29;20248;-58
2023/05/14 07:50:57;;;;;;;2.80;2.50;;;21.30;99.90;;;;;;4813850;29;20236;-57
2023/05/14 07:53:25;;;;;;;3.73;3.00;;;21.30;99.90;;;;;;4810615;29;20249;-57
2023/05/14 07:55:53;;;;;;;3.03;2.70;;;21.10;99.90;;;;;;4812894;29;20248;-57
2023/05/14 07:58:23;;;;;;;3.10;2.90;;;21.20;99.90;;;;;;4814073;29;20275;-57
2023/05/14 08:00:52;;;;;;;3.70;2.60;;;21.20;99.90;;;;;;4813453;29;20251;-58
2023/05/14 08:03:20;;;;;;;4.40;2.57;;;21.60;99.90;;;;;;4812734;29;20298;-57
2023/05/14 08:05:49;;;;;;;3.97;2.57;;;22.20;99.90;;;;;;4808962;29;20236;-58
2023/05/14 08:08:17;;;;;;;3.10;2.80;;;22.30;99.90;;;;;;4812927;29;20377;-58
2023/05/14 08:10:45;;;;;;;3.27;2.87;;;22.70;99.90;;;;;;4811811;29;20249;-58
2023/05/14 08:13:13;;;;;;;2.73;2.53;;;22.80;99.90;;;;;;4813081;29;20307;-58
2023/05/14 08:15:43;;;;;;;3.90;2.87;;;23.00;99.90;;;;;;4808999;29;20236;-58
2023/05/14 08:18:11;;;;;;;3.23;2.50;;;23.10;99.90;;;;;;4813353;29;20247;-58
2023/05/14 08:20:39;;;;;;;3.03;2.70;;;22.90;99.90;;;;;;4811490;29;20374;-58
2023/05/14 08:23:08;;;;;;;3.13;2.67;;;23.10;99.90;;;;;;4813265;29;20238;-57
2023/05/14 08:25:36;;;;;;;2.83;2.63;;;23.10;99.90;;;;;;4808616;29;20697;-57
2023/05/14 08:28:04;;;;;;;4.17;2.73;;;23.20;99.90;;;;;;4813907;29;20236;-58
2023/05/14 08:30:33;;;;;;;5.13;2.80;;;23.00;99.90;;;;;;4815156;29;20338;-58
2023/05/14 08:33:05;;;;;;;3.97;2.90;;;22.80;99.90;;;;;;4815828;29;20240;-58
2023/05/14 08:35:33;;;;;;;3.83;2.80;;;23.00;99.90;;;;;;4813136;29;20276;-57
2023/05/14 08:38:01;;;;;;;3.80;2.70;;;23.00;99.90;;;;;;4816130;29;20250;-57
2023/05/14 08:40:29;;;;;;;3.03;2.83;;;23.30;99.90;;;;;;4815185;29;20233;-58
2023/05/14 08:42:59;;;;;;;3.70;2.60;;;23.30;99.90;;;;;;4816842;29;20232;-57
2023/05/14 08:45:32;;;;;;;4.30;2.50;;;23.40;99.90;;;;;;4812519;29;20263;-58
2023/05/14 08:48:07;;;;;;;2.70;2.50;;;23.50;99.90;;;;;;4816356;29;20240;-58
2023/05/14 08:50:36;;;;;;;4.90;2.70;;;23.70;99.90;;;;;;4814792;29;20248;-57
2023/05/14 08:53:04;;;;;;;2.70;2.50;;;23.70;99.90;;;;;;4816073;29;20230;-58
2023/05/14 08:55:33;;;;;;;3.27;2.70;;;24.10;99.90;;;;;;4813423;29;20753;-58
2023/05/14 08:58:01;;;;;;;3.63;2.60;;;24.70;99.90;;;;;;4815538;29;20726;-58
2023/05/14 09:00:29;;;;;;;5.70;2.90;;;24.90;99.90;;;;;;4813933;29;20245;-58
2023/05/14 09:02:58;;;;;;;2.73;2.53;;;25.20;99.90;;;;;;4814574;29;20885;-57
2023/05/14 09:05:28;;;;;;;4.23;2.67;;;25.60;99.90;;;;;;4810980;29;20223;-58
2023/05/14 09:07:56;;;;;;;3.00;2.70;;;25.60;99.90;;;;;;4814045;29;20230;-58
2023/05/14 09:10:25;;;;;;;3.50;2.90;;;25.80;99.90;;;;;;4813590;29;20235;-57
2023/05/14 09:12:53;;;;;;;2.90;2.60;;;25.90;99.90;;;;;;4813772;29;20235;-58
2023/05/14 09:15:23;;;;;;;4.20;3.13;;;26.10;99.90;;;;;;4811306;29;20235;-58
2023/05/14 09:17:52;;;;;;;3.60;2.50;;;26.60;99.40;;;;;;4813690;29;20242;-58
2023/05/14 09:20:21;;;;;;;3.93;2.73;;;26.40;98.40;;;;;;4813168;29;20587;-58
2023/05/14 09:22:54;;;;;;;4.63;3.00;;;25.50;99.70;;;;;;4813616;29;20254;-58
2023/05/14 09:25:26;;;;;;;3.27;2.90;;;25.30;99.90;;;;;;4812557;29;20606;-58
2023/05/14 09:27:54;;;;;;;2.63;2.43;;;25.50;99.90;;;;;;4815219;29;20218;-58
2023/05/14 09:30:26;;;;;;;3.47;2.70;;;25.90;99.90;;;;;;4814921;29;20722;-58
2023/05/14 09:32:55;;;;;;;2.80;2.60;;;26.20;98.60;;;;;;4814164;29;20696;-58
2023/05/14 09:35:24;;;;;;;4.30;2.80;;;26.20;96.50;;;;;;4811963;29;20328;-58
2023/05/14 09:37:55;;;;;;;3.60;2.57;;;26.00;97.60;;;;;;4813942;29;20231;-58
2023/05/14 09:40:24;;;;;;;2.93;2.63;;;25.80;97.00;;;;;;4814174;29;20288;-58
2023/05/14 09:42:52;;;;;;;4.53;2.63;;;25.40;95.90;;;;;;4814144;29;20254;-58
2023/05/14 09:45:21;;;;;;;3.20;2.60;;;24.90;96.10;;;;;;4815308;29;20699;-58
2023/05/14 09:47:49;;;;;;;3.77;2.73;;;25.00;95.00;;;;;;4816722;29;20241;-58
2023/05/14 09:50:17;;;;;;;6.47;3.00;;;25.60;95.60;;;;;;4816156;29;20737;-58
2023/05/14 09:52:45;;;;;;;3.90;2.97;;;25.80;95.00;;;;;;4817004;29;20226;-58
2023/05/14 09:55:15;;;;;;;4.10;2.80;;;25.30;95.30;;;;;;4814942;29;20243;-58
2023/05/14 09:57:44;;;;;;;6.80;3.00;;;25.00;95.60;;;;;;4817096;29;20272;-58
2023/05/14 10:00:13;;;;;;;3.20;2.63;;;26.00;96.10;;;;;;4816184;29;20258;-58
2023/05/14 10:02:44;;;;;;;3.83;2.50;;;26.70;95.20;;;;;;4816215;29;20687;-58
2023/05/14 10:05:14;;;;;;;3.20;2.70;;;26.60;94.30;;;;;;4810463;29;20581;-58
2023/05/14 10:07:47;;;;;;;3.00;2.70;;;26.60;95.30;;;;;;4813178;29;20240;-59
2023/05/14 10:10:19;;;;;;;3.43;2.50;;;26.80;95.30;;;;;;4814226;29;20336;-58
2023/05/14 10:12:52;;;;;;;3.00;2.70;;;26.80;95.10;;;;;;4812835;29;20763;-58
2023/05/14 10:15:25;;;;;;;4.27;2.77;;;27.10;95.50;;;;;;4810221;29;20302;-59
2023/05/14 10:18:06;;;;;;;3.00;2.70;;;26.60;94.70;;;;;;4812639;29;20252;-59
2023/05/14 10:20:38;;;;;;;2.90;2.70;;;26.10;95.00;;;;;;4812801;29;20238;-58
2023/05/14 10:23:07;;;;;;;4.03;2.80;;;25.30;95.50;;;;;;4813324;29;20333;-58
2023/05/14 10:25:37;;;;;;;3.57;3.23;;;24.90;95.60;;;;;;4811509;29;20226;-58
2023/05/14 10:28:06;;;;;;;3.30;2.97;;;24.50;96.40;;;;;;4811502;29;20239;-57
2023/05/14 10:30:34;;;;;;;4.10;3.03;;;24.30;96.40;;;;;;4812937;29;20311;-58
2023/05/14 10:33:09;;;;;;;3.87;2.70;;;24.30;97.10;;;;;;4813358;29;20238;-58
2023/05/14 10:35:59;;;;;;;4.20;2.83;;;23.90;97.20;;;;;;4810436;29;20995;-58
2023/05/14 10:38:30;;;;;;;4.70;2.80;;;24.00;97.60;;;;;;4812567;29;20241;-58
2023/05/14 10:41:04;;;;;;;4.27;2.90;;;24.10;97.60;;;;;;4815599;29;20241;-58
2023/05/14 10:43:37;;;;;;;4.27;2.80;;;24.10;98.20;;;;;;4815666;29;20234;-58
2023/05/14 10:46:07;;;;;;;4.97;2.93;;;24.70;96.90;;;;;;4814494;29;20308;-58
2023/05/14 10:48:37;;;;;;;4.10;2.80;;;25.00;96.60;;;;;;4815388;29;20272;-58
2023/05/14 10:51:07;;;;;;;6.50;3.30;;;25.20;96.30;;;;;;4812578;29;20594;-58
2023/05/14 10:53:37;;;;;;;4.70;2.97;;;25.20;95.90;;;;;;4812515;29;20247;-58
2023/05/14 10:56:09;;;;;;;4.27;3.10;;;25.40;96.70;;;;;;4809154;29;20791;-58
2023/05/14 10:58:38;;;;;;;4.13;2.70;;;25.60;96.10;;;;;;4812526;29;20706;-58
2023/05/14 11:01:07;;;;;;;6.03;2.97;;;25.30;96.00;;;;;;4811548;29;20798;-58
2023/05/14 11:03:43;;;;;;;3.17;2.83;;;25.20;95.50;;;;;;4815676;29;20312;-58
2023/05/14 11:06:13;;;;;;;4.47;3.00;;;24.80;94.20;;;;;;4813828;29;20338;-58
2023/05/14 11:08:42;;;;;;;3.07;2.80;;;25.20;94.50;;;;;;4815326;29;20333;-58
2023/05/14 11:11:12;;;;;;;4.00;3.10;;;25.10;94.10;;;;;;4815004;29;20266;-58
2023/05/14 11:13:41;;;;;;;3.07;2.77;;;24.90;94.20;;;;;;4815290;29;20680;-58
2023/05/14 11:16:09;;;;;;;3.87;2.97;;;24.60;94.30;;;;;;4813891;29;20267;-58
2023/05/14 11:18:54;;;;;;;3.40;2.80;;;24.80;94.00;;;;;;4814792;29;20322;-58
2023/05/14 11:21:22;;;;;;;3.37;3.07;;;25.30;93.40;;;;;;4813848;29;20726;-58
2023/05/14 11:23:51;;;;;;;4.83;2.83;;;25.70;93.30;;;;;;4812383;29;20247;-58
2023/05/14 11:26:21;;;;;;;5.30;3.03;;;25.90;92.40;;;;;;4809891;29;20245;-58
2023/05/14 11:28:50;;;;;;;3.10;2.80;;;25.20;91.80;;;;;;4810539;29;20629;-58
2023/05/14 11:31:18;;;;;;;3.67;2.77;;;24.80;93.00;;;;;;4813545;29;20265;-58
2023/05/14 11:33:47;;;;;;;4.77;3.20;;;24.30;93.00;;;;;;4812359;29;20876;-58
2023/05/14 11:36:17;;;;;;;4.30;3.30;;;23.90;92.90;;;;;;4810977;29;20610;-58
2023/05/14 11:38:49;;;;;;;4.73;3.20;;;23.80;93.70;;;;;;4810440;29;20714;-57
2023/05/14 11:41:21;;;;;;;7.73;3.33;;;23.70;93.60;;;;;;4809903;29;20238;-58
2023/05/14 11:43:50;;;;;;;5.50;3.20;;;23.80;94.70;;;;;;4810523;29;20233;-58
2023/05/14 11:46:18;;;;;;;3.53;3.10;;;24.10;93.60;;;;;;4807695;29;20451;-57
2023/05/14 11:48:47;;;;;;;5.03;3.37;;;24.80;93.80;;;;;;4811494;29;20244;-58
2023/05/14 11:51:15;;;;;;;5.33;3.17;;;25.20;92.80;;;;;;4810784;29;20242;-58
2023/05/14 11:53:46;;;;;;;4.10;3.00;;;25.50;92.80;;;;;;4812001;29;20333;-59
2023/05/14 11:56:17;;;;;;;5.97;3.10;;;25.80;93.90;;;;;;4808143;29;20454;-58
2023/05/14 11:58:49;;;;;;;3.73;3.20;;;25.90;92.70;;;;;;4811827;29;20247;-58
2023/05/14 12:01:18;;;;;;;4.13;2.80;;;26.10;92.20;;;;;;4810320;29;20247;-58
2023/05/14 12:03:46;;;;;;;5.00;2.90;;;26.30;92.50;;;;;;4812823;29;20258;-58
2023/05/14 12:06:14;;;;;;;4.90;2.80;;;26.50;92.80;;;;;;4811871;29;20236;-57
2023/05/14 12:08:48;;;;;;;4.80;3.27;;;26.70;91.50;;;;;;4813070;29;20241;-58
2023/05/14 12:11:20;;;;;;;5.03;2.90;;;26.30;92.00;;;;;;4815024;29;20253;-58
2023/05/14 12:13:50;;;;;;;3.60;2.77;;;26.30;91.70;;;;;;4814650;29;20621;-57
2023/05/14 12:16:20;;;;;;;2.90;2.70;;;26.30;93.00;;;;;;4810902;29;20242;-57
2023/05/14 12:18:49;;;;;;;5.07;2.67;;;26.20;92.10;;;;;;4813962;29;20684;-57
2023/05/14 12:21:17;;;;;;;3.33;2.87;;;26.30;90.60;;;;;;4814603;29;20679;-56
2023/05/14 12:23:45;;;;;;;3.20;2.90;;;26.20;91.50;;;;;;4814298;29;20247;-58
2023/05/14 12:26:14;;;;;;;3.37;3.07;;;25.60;92.20;;;;;;4811379;29;20302;-58
2023/05/14 12:28:42;;;;;;;4.57;3.00;;;25.20;91.00;;;;;;4812605;29;20314;-57
2023/05/14 12:31:12;;;;;;;3.37;3.07;;;24.50;93.00;;;;;;4812644;29;20307;-56
2023/05/14 12:33:40;;;;;;;5.70;3.30;;;24.10;93.70;;;;;;4813623;29;20329;-57
2023/05/14 12:36:08;;;;;;;8.43;3.10;;;23.90;93.70;;;;;;4808169;29;20799;-55
2023/05/14 12:38:49;;;;;;;3.33;3.00;;;23.60;94.70;;;;;;4813017;29;20303;-57
2023/05/14 12:41:17;;;;;;;5.93;3.30;;;22.90;95.60;;;;;;4813397;29;20602;-57
2023/05/14 12:43:47;;;;;;;3.80;3.20;;;22.40;97.20;;;;;;4811912;29;20981;-57
2023/05/14 12:46:18;;;;;;;7.40;3.53;;;22.10;98.10;;;;;;4812391;29;20343;-56
2023/05/14 12:48:46;;;;;;;9.40;3.50;;;21.90;99.50;;;;;;4813094;29;20233;-57
2023/05/14 12:51:14;;;;;;;5.10;3.33;;;21.90;99.90;;;;;;4813596;29;20236;-57
2023/05/14 12:53:42;;;;;;;6.97;4.00;;;21.80;99.90;;;;;;4811500;29;20579;-57
2023/05/14 12:56:11;;;;;;;5.27;3.60;;;21.80;99.90;;;;;;4811432;29;20229;-57
2023/05/14 12:58:39;;;;;;;4.17;3.30;;;21.80;99.90;;;;;;4811379;29;20243;-57